createdAt,value
2019-03-17T00:00:00.428Z,2.87
2019-03-17T00:04:05.411Z,1.80
2019-03-17T00:08:10.279Z,3.30
2019-03-17T00:12:15.172Z,2.60
2019-03-17T00:16:20.061Z,1.83
2019-03-17T00:20:24.987Z,3.27
2019-03-17T00:24:29.851Z,2.60
2019-03-17T00:28:34.743Z,3.50
2019-03-17T00:32:39.684Z,3.60
2019-03-17T00:36:44.529Z,8.43
2019-03-17T00:40:49.420Z,4.47
2019-03-17T00:44:54.296Z,6.00
2019-03-17T00:48:59.183Z,3.07
2019-03-17T00:53:04.073Z,4.33
2019-03-17T00:57:08.961Z,2.53
2019-03-17T01:01:13.922Z,3.83
2019-03-17T01:05:18.823Z,3.93
2019-03-17T01:09:23.714Z,2.97
2019-03-17T01:13:28.600Z,3.27
2019-03-17T01:17:34.562Z,3.57
2019-03-17T01:21:39.456Z,5.27
2019-03-17T01:25:44.332Z,4.70
2019-03-17T01:29:49.380Z,2.47
2019-03-17T01:33:54.275Z,2.80
2019-03-17T01:37:59.169Z,3.00
2019-03-17T01:42:04.057Z,2.50
2019-03-17T01:46:08.951Z,3.63
2019-03-17T01:50:13.835Z,2.40
2019-03-17T01:54:18.741Z,2.20
2019-03-17T01:58:23.632Z,2.70
2019-03-17T02:02:28.521Z,4.63
2019-03-17T02:06:33.405Z,4.63
2019-03-17T02:10:38.294Z,2.27
2019-03-17T02:14:43.182Z,5.63
2019-03-17T02:18:48.077Z,2.77
2019-03-17T02:22:52.965Z,3.70
2019-03-17T02:26:57.850Z,6.50
2019-03-17T02:31:02.744Z,3.40
2019-03-17T02:35:07.704Z,1.60
2019-03-17T02:39:12.605Z,3.63
2019-03-17T02:43:17.490Z,2.70
2019-03-17T02:47:22.376Z,2.47
2019-03-17T02:51:27.266Z,5.83
2019-03-17T02:55:32.155Z,3.43
2019-03-17T02:59:37.042Z,5.33
2019-03-17T03:03:41.948Z,3.30
2019-03-17T03:07:46.825Z,5.00
2019-03-17T03:11:51.705Z,3.30
2019-03-17T03:15:56.591Z,4.17
2019-03-17T03:20:01.480Z,3.93
2019-03-17T03:24:06.375Z,7.37
2019-03-17T03:28:12.233Z,6.70
2019-03-17T03:32:17.119Z,3.20
2019-03-17T03:36:23.083Z,5.87
2019-03-17T03:40:27.971Z,5.40
2019-03-17T03:44:33.828Z,2.77
2019-03-17T03:48:38.714Z,6.77
2019-03-17T03:52:43.607Z,4.80
2019-03-17T03:56:48.486Z,4.17
2019-03-17T04:00:53.384Z,4.47
2019-03-17T04:04:58.354Z,3.83
2019-03-17T04:09:04.585Z,3.10
2019-03-17T04:13:09.463Z,5.13
2019-03-17T04:17:14.357Z,4.50
2019-03-17T04:21:19.241Z,4.83
2019-03-17T04:25:24.152Z,4.20
2019-03-17T04:29:29.026Z,3.47
2019-03-17T04:33:33.910Z,6.67
2019-03-17T04:37:38.825Z,4.00
2019-03-17T04:41:43.716Z,2.87
2019-03-17T04:45:48.599Z,4.47
2019-03-17T04:49:53.492Z,4.60
2019-03-17T04:53:58.366Z,6.53
2019-03-17T04:58:03.263Z,4.90
2019-03-17T05:02:08.221Z,3.80
2019-03-17T05:06:13.119Z,7.27
2019-03-17T05:10:18.012Z,4.90
2019-03-17T05:14:22.895Z,5.37
2019-03-17T05:18:27.780Z,4.67
2019-03-17T05:22:32.671Z,4.13
2019-03-17T05:26:37.595Z,5.00
2019-03-17T05:30:42.467Z,5.10
2019-03-17T05:34:47.348Z,4.30
2019-03-17T05:38:52.230Z,9.70
2019-03-17T05:42:57.131Z,8.03
2019-03-17T05:47:02.023Z,11.00
2019-03-17T05:51:06.917Z,9.67
2019-03-17T05:55:11.798Z,8.93
2019-03-17T05:59:19.693Z,10.57
2019-03-17T06:03:24.278Z,9.07
2019-03-17T06:07:29.173Z,6.27
2019-03-17T06:11:35.034Z,6.63
2019-03-17T06:15:39.905Z,4.70
2019-03-17T06:19:44.813Z,7.30
2019-03-17T06:23:49.699Z,7.17
2019-03-17T06:27:54.586Z,5.27
2019-03-17T06:31:59.479Z,9.23
2019-03-17T06:36:04.447Z,4.97
2019-03-17T06:40:11.781Z,8.33
2019-03-17T06:44:16.669Z,5.37
2019-03-17T06:48:21.576Z,6.63
2019-03-17T06:52:26.457Z,5.03
2019-03-17T06:56:31.343Z,6.00
2019-03-17T07:00:36.234Z,6.50
2019-03-17T07:04:41.126Z,8.67
2019-03-17T07:08:46.023Z,7.70
2019-03-17T07:12:50.905Z,11.17
2019-03-17T07:16:55.795Z,6.03
2019-03-17T07:21:00.693Z,7.27
2019-03-17T07:25:07.229Z,4.97
2019-03-17T07:29:12.122Z,8.20
2019-03-17T07:33:17.037Z,6.17
2019-03-17T07:37:21.921Z,7.00
2019-03-17T07:41:26.810Z,6.13
2019-03-17T07:45:31.712Z,10.70
2019-03-17T07:49:36.614Z,5.70
2019-03-17T07:53:41.505Z,8.03
2019-03-17T07:57:46.408Z,7.37
2019-03-17T08:01:51.315Z,12.00
2019-03-17T08:05:56.220Z,5.33
2019-03-17T08:10:01.118Z,6.93
2019-03-17T08:14:06.010Z,10.30
2019-03-17T08:18:10.910Z,8.80
2019-03-17T08:22:16.384Z,5.77
2019-03-17T08:26:21.291Z,10.97
2019-03-17T08:30:26.198Z,6.60
2019-03-17T08:34:31.089Z,7.57
2019-03-17T08:38:35.985Z,7.30
2019-03-17T08:42:40.882Z,6.77
2019-03-17T08:46:46.702Z,3.57
2019-03-17T08:50:51.601Z,4.50
2019-03-17T08:54:57.567Z,6.77
2019-03-17T08:59:02.444Z,4.23
2019-03-17T09:03:07.339Z,5.40
2019-03-17T09:07:12.241Z,3.83
2019-03-17T09:11:17.147Z,4.63
2019-03-17T09:15:22.038Z,4.70
2019-03-17T09:19:26.936Z,2.10
2019-03-17T09:23:31.833Z,5.17
2019-03-17T09:27:36.729Z,5.50
2019-03-17T09:31:41.635Z,5.17
2019-03-17T09:35:46.513Z,8.40
2019-03-17T09:39:51.415Z,3.53
2019-03-17T09:43:56.310Z,6.40
2019-03-17T09:48:01.199Z,5.00
2019-03-17T09:52:06.094Z,6.93
2019-03-17T09:56:10.988Z,4.83
2019-03-17T10:00:23.011Z,6.17
2019-03-17T10:04:27.909Z,5.03
2019-03-17T10:08:32.817Z,6.07
2019-03-17T10:12:37.699Z,4.10
2019-03-17T10:16:42.583Z,1.23
2019-03-17T10:20:47.484Z,4.23
2019-03-17T10:24:52.385Z,2.30
2019-03-17T10:28:57.275Z,3.77
2019-03-17T10:33:03.151Z,1.20
2019-03-17T10:37:08.034Z,2.23
2019-03-17T10:41:12.939Z,2.13
2019-03-17T10:45:17.900Z,1.90
2019-03-17T10:49:22.809Z,8.47
2019-03-17T10:53:27.700Z,3.47
2019-03-17T10:57:32.588Z,2.63
2019-03-17T11:01:37.469Z,1.23
2019-03-17T11:05:43.831Z,0.83
2019-03-17T11:09:48.724Z,3.03
2019-03-17T11:13:53.619Z,0.40
2019-03-17T11:17:58.504Z,0.80
2019-03-17T11:22:03.397Z,1.07
2019-03-17T11:26:08.288Z,0.87
2019-03-17T11:30:16.223Z,2.83
2019-03-17T11:34:22.085Z,1.70
2019-03-17T11:38:26.971Z,2.40
2019-03-17T11:42:31.865Z,0.77
2019-03-17T11:46:36.812Z,2.23
2019-03-17T11:50:41.648Z,0.50
2019-03-17T11:54:46.542Z,2.43
2019-03-17T11:58:51.428Z,2.63
2019-03-17T12:02:57.284Z,0.70
2019-03-17T12:07:02.178Z,1.53
2019-03-17T12:11:07.072Z,1.53
2019-03-17T12:15:17.324Z,0.70
2019-03-17T12:19:22.200Z,2.47
2019-03-17T12:23:27.089Z,2.87
2019-03-17T12:27:31.976Z,0.57
2019-03-17T12:31:36.863Z,2.33
2019-03-17T12:35:41.753Z,1.03
2019-03-17T12:39:46.631Z,0.53
2019-03-17T12:43:51.527Z,1.47
2019-03-17T12:47:56.413Z,1.37
2019-03-17T12:52:01.306Z,1.10
2019-03-17T12:56:06.197Z,2.60
2019-03-17T13:00:13.891Z,2.30
2019-03-17T13:04:18.775Z,1.93
2019-03-17T13:08:23.662Z,0.60
2019-03-17T13:12:28.551Z,1.73
2019-03-17T13:16:33.443Z,1.07
2019-03-17T13:20:38.327Z,3.13
2019-03-17T13:24:43.229Z,2.90
2019-03-17T13:28:48.127Z,3.03
2019-03-17T13:32:53.024Z,2.73
2019-03-17T13:36:57.925Z,1.47
2019-03-17T13:41:02.821Z,1.00
2019-03-17T13:45:12.405Z,1.43
2019-03-17T13:49:17.329Z,0.93
2019-03-17T13:53:23.024Z,1.67
2019-03-17T13:57:28.099Z,0.63
2019-03-17T14:01:32.988Z,1.43
2019-03-17T14:05:37.883Z,2.07
2019-03-17T14:09:42.780Z,3.10
2019-03-17T14:13:47.686Z,1.13
2019-03-17T14:17:52.580Z,4.93
2019-03-17T14:21:57.473Z,2.73
2019-03-17T14:26:02.365Z,1.47
2019-03-17T14:30:13.295Z,3.20
2019-03-17T14:34:18.188Z,2.33
2019-03-17T14:38:23.091Z,2.80
2019-03-17T14:42:27.973Z,2.33
2019-03-17T14:46:35.590Z,2.20
2019-03-17T14:50:39.480Z,1.33
2019-03-17T14:54:44.374Z,4.00
2019-03-17T14:58:49.277Z,1.13
2019-03-17T15:02:54.170Z,3.53
2019-03-17T15:06:59.071Z,1.57
2019-03-17T15:11:05.973Z,1.97
2019-03-17T15:15:13.104Z,2.67
2019-03-17T15:19:18.003Z,1.47
2019-03-17T15:23:22.891Z,2.97
2019-03-17T15:27:27.783Z,3.60
2019-03-17T15:31:32.671Z,2.97
2019-03-17T15:35:37.566Z,2.73
2019-03-17T15:39:42.455Z,8.50
2019-03-17T15:43:47.337Z,5.93
2019-03-17T15:47:52.226Z,1.30
2019-03-17T15:51:57.120Z,1.27
2019-03-17T15:56:02.012Z,2.63
2019-03-17T16:00:25.096Z,2.97
2019-03-17T16:04:21.983Z,2.90
2019-03-17T16:08:28.340Z,4.40
2019-03-17T16:12:33.233Z,5.03
2019-03-17T16:16:38.122Z,5.47
2019-03-17T16:20:43.010Z,6.67
2019-03-17T16:24:47.886Z,4.30
2019-03-17T16:28:52.779Z,3.00
2019-03-17T16:32:57.742Z,2.80
2019-03-17T16:37:02.634Z,2.80
2019-03-17T16:41:07.521Z,4.73
2019-03-17T16:45:14.739Z,7.73
2019-03-17T16:49:20.598Z,4.70
2019-03-17T16:53:26.453Z,7.00
2019-03-17T16:57:31.341Z,3.30
2019-03-17T17:01:36.238Z,6.77
2019-03-17T17:05:41.112Z,1.40
2019-03-17T17:09:46.000Z,6.33
2019-03-17T17:13:50.893Z,7.43
2019-03-17T17:17:55.860Z,4.83
2019-03-17T17:22:00.751Z,2.13
2019-03-17T17:26:05.619Z,1.60
2019-03-17T17:30:15.469Z,5.37
2019-03-17T17:34:20.363Z,6.07
2019-03-17T17:38:25.259Z,8.27
2019-03-17T17:42:30.146Z,7.37
2019-03-17T17:46:35.031Z,5.97
2019-03-17T17:50:39.919Z,5.10
2019-03-17T17:54:44.813Z,9.27
2019-03-17T17:58:49.705Z,7.90
2019-03-17T18:02:54.601Z,3.87
2019-03-17T18:06:59.478Z,6.43
2019-03-17T18:11:04.434Z,2.90
2019-03-17T18:15:15.063Z,4.90
2019-03-17T18:19:19.951Z,2.90
2019-03-17T18:23:24.855Z,4.20
2019-03-17T18:27:29.720Z,3.23
2019-03-17T18:31:34.613Z,2.30
2019-03-17T18:35:39.516Z,1.50
2019-03-17T18:39:44.408Z,6.30
2019-03-17T18:43:49.296Z,1.00
2019-03-17T18:47:54.187Z,1.10
2019-03-17T18:51:59.083Z,1.93
2019-03-17T18:56:04.047Z,2.63
2019-03-17T19:00:14.886Z,3.87
2019-03-17T19:04:19.773Z,2.67
2019-03-17T19:08:24.670Z,0.93
2019-03-17T19:12:29.551Z,2.13
2019-03-17T19:16:34.436Z,2.97
2019-03-17T19:20:39.329Z,4.93
2019-03-17T19:24:44.234Z,3.10
2019-03-17T19:28:49.119Z,3.10
2019-03-17T19:32:54.006Z,2.20
2019-03-17T19:36:59.953Z,1.73
2019-03-17T19:41:04.916Z,1.57
2019-03-17T19:45:10.071Z,2.83
2019-03-17T19:49:14.958Z,2.20
2019-03-17T19:53:19.849Z,2.17
2019-03-17T19:57:24.745Z,1.67
2019-03-17T20:01:29.633Z,0.60
2019-03-17T20:05:34.518Z,0.93
2019-03-17T20:09:39.399Z,2.53
2019-03-17T20:13:44.291Z,1.20
2019-03-17T20:17:49.179Z,1.37
2019-03-17T20:21:54.067Z,1.80
2019-03-17T20:25:58.963Z,1.97
2019-03-17T20:30:08.995Z,2.23
2019-03-17T20:34:13.886Z,2.93
2019-03-17T20:38:18.780Z,1.40
2019-03-17T20:42:23.663Z,1.50
2019-03-17T20:46:28.626Z,1.07
2019-03-17T20:50:33.511Z,1.63
2019-03-17T20:54:38.401Z,1.70
2019-03-17T20:58:43.296Z,1.00
2019-03-17T21:02:48.188Z,0.67
2019-03-17T21:06:53.087Z,0.57
2019-03-17T21:10:57.960Z,1.17
2019-03-17T21:15:02.858Z,0.67
2019-03-17T21:19:07.751Z,2.47
2019-03-17T21:23:13.612Z,3.00
2019-03-17T21:27:18.529Z,3.10
2019-03-17T21:31:23.406Z,1.77
2019-03-17T21:35:28.295Z,1.40
2019-03-17T21:39:33.185Z,3.77
2019-03-17T21:43:38.076Z,3.03
2019-03-17T21:47:43.045Z,1.53
2019-03-17T21:51:47.939Z,1.00
2019-03-17T21:55:54.181Z,0.50
2019-03-17T22:00:00.405Z,0.93
2019-03-17T22:04:05.231Z,0.57
2019-03-17T22:08:10.130Z,1.13
2019-03-17T22:12:15.002Z,1.13
2019-03-17T22:16:19.902Z,0.37
2019-03-17T22:20:24.776Z,0.60
2019-03-17T22:24:29.664Z,1.43
2019-03-17T22:28:34.548Z,0.60
2019-03-17T22:32:39.435Z,3.13
2019-03-17T22:36:44.318Z,1.20
2019-03-17T22:40:49.208Z,3.30
2019-03-17T22:44:54.095Z,1.97
2019-03-17T22:48:58.977Z,1.23
2019-03-17T22:53:03.859Z,2.07
2019-03-17T22:57:08.748Z,1.27
2019-03-17T23:01:13.642Z,1.13
2019-03-17T23:05:18.530Z,4.70
2019-03-17T23:09:23.407Z,2.77
2019-03-17T23:13:28.294Z,3.07
2019-03-17T23:17:33.183Z,1.40
2019-03-17T23:21:38.068Z,3.03
2019-03-17T23:25:42.967Z,3.03
2019-03-17T23:29:47.844Z,0.63
2019-03-17T23:33:52.747Z,2.60
2019-03-17T23:37:57.640Z,1.37
2019-03-17T23:42:02.522Z,2.63
2019-03-17T23:46:07.405Z,2.90
2019-03-17T23:50:13.521Z,1.60
2019-03-17T23:54:18.410Z,0.63
2019-03-17T23:58:23.317Z,1.93
